sensor_id;sensor_type;location;lat;lon;timestamp;P1;durP1;ratioP1;P2;durP2;ratioP2
11431;SDS011;5772;50.940;6.782;2023-03-01T01:16:14;31.00;;;29.40;;
11431;SDS011;5772;50.940;6.782;2023-03-01T01:18:40;29.80;;;27.60;;
11431;SDS011;5772;50.940;6.782;2023-03-01T01:21:07;31.10;;;29.40;;
11431;SDS011;5772;50.940;6.782;2023-03-01T01:23:33;31.47;;;29.17;;
11431;SDS011;5772;50.940;6.782;2023-03-01T01:26:02;31.53;;;29.43;;
11431;SDS011;5772;50.940;6.782;2023-03-01T01:28:28;31.53;;;29.23;;
11431;SDS011;5772;50.940;6.782;2023-03-01T01:30:54;31.23;;;29.13;;
11431;SDS011;5772;50.940;6.782;2023-03-01T01:33:20;31.00;;;29.30;;
11431;SDS011;5772;50.940;6.782;2023-03-01T01:35:46;31.67;;;29.80;;
11431;SDS011;5772;50.940;6.782;2023-03-01T01:38:11;31.53;;;29.70;;
11431;SDS011;5772;50.940;6.782;2023-03-01T01:40:42;30.03;;;28.33;;
11431;SDS011;5772;50.940;6.782;2023-03-01T01:43:09;32.37;;;30.20;;
11431;SDS011;5772;50.940;6.782;2023-03-01T01:45:40;31.33;;;29.27;;
11431;SDS011;5772;50.940;6.782;2023-03-01T01:48:06;32.80;;;30.73;;
11431;SDS011;5772;50.940;6.782;2023-03-01T01:50:37;33.30;;;31.10;;
11431;SDS011;5772;50.940;6.782;2023-03-01T01:53:05;32.33;;;29.77;;
11431;SDS011;5772;50.940;6.782;2023-03-01T01:55:32;31.70;;;29.90;;
11431;SDS011;5772;50.940;6.782;2023-03-01T01:57:58;31.60;;;29.90;;
11431;SDS011;5772;50.940;6.782;2023-03-01T02:00:27;34.37;;;32.10;;
11431;SDS011;5772;50.940;6.782;2023-03-01T02:02:54;34.83;;;32.73;;
11431;SDS011;5772;50.940;6.782;2023-03-01T02:05:22;33.77;;;32.07;;
11431;SDS011;5772;50.940;6.782;2023-03-01T02:07:53;35.20;;;33.07;;
11431;SDS011;5772;50.940;6.782;2023-03-01T02:10:19;32.97;;;31.17;;
11431;SDS011;5772;50.940;6.782;2023-03-01T02:12:44;32.90;;;31.10;;
11431;SDS011;5772;50.940;6.782;2023-03-01T02:15:10;33.67;;;31.63;;
11431;SDS011;5772;50.940;6.782;2023-03-01T02:17:36;32.73;;;31.00;;
11431;SDS011;5772;50.940;6.782;2023-03-01T02:20:07;33.60;;;31.60;;
11431;SDS011;5772;50.940;6.782;2023-03-01T02:22:41;33.70;;;31.80;;
11431;SDS011;5772;50.940;6.782;2023-03-01T02:27:49;34.03;;;32.13;;
11431;SDS011;5772;50.940;6.782;2023-03-01T02:30:19;34.93;;;32.83;;
11431;SDS011;5772;50.940;6.782;2023-03-01T02:32:45;33.30;;;31.27;;
11431;SDS011;5772;50.940;6.782;2023-03-01T02:35:12;34.67;;;32.57;;
11431;SDS011;5772;50.940;6.782;2023-03-01T02:37:38;33.57;;;31.67;;
11431;SDS011;5772;50.940;6.782;2023-03-01T02:40:05;33.97;;;32.13;;
11431;SDS011;5772;50.940;6.782;2023-03-01T02:42:33;33.63;;;31.93;;
11431;SDS011;5772;50.940;6.782;2023-03-01T02:45:01;34.67;;;32.67;;
11431;SDS011;5772;50.940;6.782;2023-03-01T02:47:28;34.53;;;32.70;;
11431;SDS011;5772;50.940;6.782;2023-03-01T02:49:54;34.33;;;32.23;;
11431;SDS011;5772;50.940;6.782;2023-03-01T02:52:22;33.87;;;32.07;;
11431;SDS011;5772;50.940;6.782;2023-03-01T02:54:53;35.40;;;33.23;;
11431;SDS011;5772;50.940;6.782;2023-03-01T02:57:23;33.27;;;31.27;;
11431;SDS011;5772;50.940;6.782;2023-03-01T02:59:48;34.70;;;32.70;;
11431;SDS011;5772;50.940;6.782;2023-03-01T03:02:18;36.27;;;34.20;;
11431;SDS011;5772;50.940;6.782;2023-03-01T03:04:45;33.23;;;31.40;;
11431;SDS011;5772;50.940;6.782;2023-03-01T03:07:11;33.47;;;31.47;;
11431;SDS011;5772;50.940;6.782;2023-03-01T03:09:36;33.33;;;31.53;;
11431;SDS011;5772;50.940;6.782;2023-03-01T03:12:01;33.97;;;31.97;;
11431;SDS011;5772;50.940;6.782;2023-03-01T03:14:27;32.13;;;30.40;;
11431;SDS011;5772;50.940;6.782;2023-03-01T03:16:52;33.33;;;31.33;;
11431;SDS011;5772;50.940;6.782;2023-03-01T03:19:18;33.37;;;31.40;;
11431;SDS011;5772;50.940;6.782;2023-03-01T03:21:45;34.47;;;32.37;;
11431;SDS011;5772;50.940;6.782;2023-03-01T03:24:10;34.90;;;32.80;;
11431;SDS011;5772;50.940;6.782;2023-03-01T03:26:35;34.07;;;32.07;;
11431;SDS011;5772;50.940;6.782;2023-03-01T03:29:01;34.03;;;32.20;;
11431;SDS011;5772;50.940;6.782;2023-03-01T03:31:26;32.70;;;31.00;;
11431;SDS011;5772;50.940;6.782;2023-03-01T03:33:52;37.23;;;34.43;;
11431;SDS011;5772;50.940;6.782;2023-03-01T03:36:18;33.87;;;32.07;;
11431;SDS011;5772;50.940;6.782;2023-03-01T03:38:46;35.03;;;33.03;;
11431;SDS011;5772;50.940;6.782;2023-03-01T03:41:12;33.83;;;32.17;;
11431;SDS011;5772;50.940;6.782;2023-03-01T03:43:38;34.57;;;32.67;;
11431;SDS011;5772;50.940;6.782;2023-03-01T03:46:04;34.23;;;32.43;;
11431;SDS011;5772;50.940;6.782;2023-03-01T03:48:30;36.53;;;34.30;;
11431;SDS011;5772;50.940;6.782;2023-03-01T03:50:56;37.10;;;35.03;;
11431;SDS011;5772;50.940;6.782;2023-03-01T03:53:22;36.30;;;34.17;;
11431;SDS011;5772;50.940;6.782;2023-03-01T03:55:49;36.40;;;34.50;;
11431;SDS011;5772;50.940;6.782;2023-03-01T03:58:15;38.07;;;36.07;;
11431;SDS011;5772;50.940;6.782;2023-03-01T04:00:41;37.90;;;35.60;;
11431;SDS011;5772;50.940;6.782;2023-03-01T04:03:08;39.17;;;36.80;;
11431;SDS011;5772;50.940;6.782;2023-03-01T04:05:35;38.70;;;36.60;;
11431;SDS011;5772;50.940;6.782;2023-03-01T04:08:00;40.17;;;37.60;;
11431;SDS011;5772;50.940;6.782;2023-03-01T04:10:26;40.07;;;37.80;;
11431;SDS011;5772;50.940;6.782;2023-03-01T04:12:53;39.67;;;37.57;;
11431;SDS011;5772;50.940;6.782;2023-03-01T04:15:19;39.23;;;37.07;;
11431;SDS011;5772;50.940;6.782;2023-03-01T04:17:44;38.83;;;36.77;;
11431;SDS011;5772;50.940;6.782;2023-03-01T04:20:11;41.80;;;39.37;;
11431;SDS011;5772;50.940;6.782;2023-03-01T04:22:38;39.13;;;37.03;;
11431;SDS011;5772;50.940;6.782;2023-03-01T04:25:04;39.27;;;36.80;;
11431;SDS011;5772;50.940;6.782;2023-03-01T04:27:30;40.17;;;38.07;;
11431;SDS011;5772;50.940;6.782;2023-03-01T04:29:56;41.70;;;39.07;;
11431;SDS011;5772;50.940;6.782;2023-03-01T04:32:22;41.10;;;38.87;;
11431;SDS011;5772;50.940;6.782;2023-03-01T04:34:47;42.27;;;39.87;;
11431;SDS011;5772;50.940;6.782;2023-03-01T04:37:12;42.70;;;40.13;;
11431;SDS011;5772;50.940;6.782;2023-03-01T04:39:38;42.13;;;39.77;;
11431;SDS011;5772;50.940;6.782;2023-03-01T04:42:03;40.93;;;38.83;;
11431;SDS011;5772;50.940;6.782;2023-03-01T04:44:29;44.33;;;41.80;;
11431;SDS011;5772;50.940;6.782;2023-03-01T04:46:55;40.93;;;38.73;;
11431;SDS011;5772;50.940;6.782;2023-03-01T04:49:21;41.53;;;39.27;;
11431;SDS011;5772;50.940;6.782;2023-03-01T04:51:46;41.73;;;39.53;;
11431;SDS011;5772;50.940;6.782;2023-03-01T04:54:11;41.53;;;39.03;;
11431;SDS011;5772;50.940;6.782;2023-03-01T04:56:37;43.97;;;41.37;;
11431;SDS011;5772;50.940;6.782;2023-03-01T04:59:02;43.97;;;41.50;;
11431;SDS011;5772;50.940;6.782;2023-03-01T05:01:27;43.13;;;40.70;;
11431;SDS011;5772;50.940;6.782;2023-03-01T05:03:54;43.30;;;40.97;;
11431;SDS011;5772;50.940;6.782;2023-03-01T05:06:20;44.00;;;41.50;;
11431;SDS011;5772;50.940;6.782;2023-03-01T05:08:45;42.07;;;39.87;;
11431;SDS011;5772;50.940;6.782;2023-03-01T05:11:11;40.70;;;38.63;;
11431;SDS011;5772;50.940;6.782;2023-03-01T05:13:37;42.57;;;40.17;;
11431;SDS011;5772;50.940;6.782;2023-03-01T05:16:03;44.03;;;41.43;;
11431;SDS011;5772;50.940;6.782;2023-03-01T05:18:30;42.93;;;40.53;;
11431;SDS011;5772;50.940;6.782;2023-03-01T05:21:02;44.07;;;41.47;;
11431;SDS011;5772;50.940;6.782;2023-03-01T05:23:29;42.40;;;39.87;;
11431;SDS011;5772;50.940;6.782;2023-03-01T05:25:57;42.30;;;39.97;;
11431;SDS011;5772;50.940;6.782;2023-03-01T05:28:22;41.57;;;39.27;;
11431;SDS011;5772;50.940;6.782;2023-03-01T05:30:47;42.50;;;40.10;;
11431;SDS011;5772;50.940;6.782;2023-03-01T05:33:13;42.33;;;39.73;;
11431;SDS011;5772;50.940;6.782;2023-03-01T05:35:39;44.30;;;41.30;;
11431;SDS011;5772;50.940;6.782;2023-03-01T05:38:06;42.97;;;40.73;;
11431;SDS011;5772;50.940;6.782;2023-03-01T05:40:32;42.27;;;39.77;;
11431;SDS011;5772;50.940;6.782;2023-03-01T05:42:58;44.00;;;41.57;;
11431;SDS011;5772;50.940;6.782;2023-03-01T05:45:24;41.27;;;38.97;;
11431;SDS011;5772;50.940;6.782;2023-03-01T05:47:50;41.63;;;39.30;;
11431;SDS011;5772;50.940;6.782;2023-03-01T05:50:17;43.40;;;40.87;;
11431;SDS011;5772;50.940;6.782;2023-03-01T05:52:43;43.10;;;40.60;;
11431;SDS011;5772;50.940;6.782;2023-03-01T05:55:10;42.93;;;40.53;;
11431;SDS011;5772;50.940;6.782;2023-03-01T05:57:35;44.00;;;41.50;;
11431;SDS011;5772;50.940;6.782;2023-03-01T06:00:01;41.93;;;39.63;;
11431;SDS011;5772;50.940;6.782;2023-03-01T06:02:27;45.53;;;42.83;;
11431;SDS011;5772;50.940;6.782;2023-03-01T06:04:52;43.90;;;41.07;;
11431;SDS011;5772;50.940;6.782;2023-03-01T06:07:17;41.60;;;39.23;;
11431;SDS011;5772;50.940;6.782;2023-03-01T06:09:43;44.97;;;42.20;;
11431;SDS011;5772;50.940;6.782;2023-03-01T06:12:09;45.37;;;42.70;;
11431;SDS011;5772;50.940;6.782;2023-03-01T06:14:35;44.70;;;41.73;;
11431;SDS011;5772;50.940;6.782;2023-03-01T06:17:00;44.80;;;42.07;;
11431;SDS011;5772;50.940;6.782;2023-03-01T06:19:25;43.07;;;40.17;;
11431;SDS011;5772;50.940;6.782;2023-03-01T06:21:51;46.17;;;43.10;;
11431;SDS011;5772;50.940;6.782;2023-03-01T06:24:16;44.80;;;42.27;;
11431;SDS011;5772;50.940;6.782;2023-03-01T06:26:41;44.53;;;41.53;;
11431;SDS011;5772;50.940;6.782;2023-03-01T06:29:08;43.60;;;41.00;;
11431;SDS011;5772;50.940;6.782;2023-03-01T06:31:33;45.13;;;42.23;;
11431;SDS011;5772;50.940;6.782;2023-03-01T06:33:59;43.47;;;40.83;;
11431;SDS011;5772;50.940;6.782;2023-03-01T06:36:24;45.97;;;43.03;;
11431;SDS011;5772;50.940;6.782;2023-03-01T06:38:49;45.37;;;42.50;;
11431;SDS011;5772;50.940;6.782;2023-03-01T06:41:15;43.03;;;40.40;;
11431;SDS011;5772;50.940;6.782;2023-03-01T06:43:40;42.40;;;39.60;;
11431;SDS011;5772;50.940;6.782;2023-03-01T06:46:07;43.20;;;40.60;;
11431;SDS011;5772;50.940;6.782;2023-03-01T06:48:32;41.23;;;38.43;;
11431;SDS011;5772;50.940;6.782;2023-03-01T06:50:58;40.13;;;37.60;;
11431;SDS011;5772;50.940;6.782;2023-03-01T06:53:23;41.63;;;38.60;;
11431;SDS011;5772;50.940;6.782;2023-03-01T06:55:53;38.23;;;35.90;;
11431;SDS011;5772;50.940;6.782;2023-03-01T06:58:19;37.43;;;35.13;;
11431;SDS011;5772;50.940;6.782;2023-03-01T07:00:44;39.37;;;37.07;;
11431;SDS011;5772;50.940;6.782;2023-03-01T07:03:11;36.67;;;34.40;;
11431;SDS011;5772;50.940;6.782;2023-03-01T07:05:36;32.33;;;30.03;;
11431;SDS011;5772;50.940;6.782;2023-03-01T07:08:01;29.53;;;27.73;;
11431;SDS011;5772;50.940;6.782;2023-03-01T07:10:27;29.50;;;27.60;;
11431;SDS011;5772;50.940;6.782;2023-03-01T07:12:54;38.20;;;35.87;;
11431;SDS011;5772;50.940;6.782;2023-03-01T07:15:20;29.87;;;27.87;;
11431;SDS011;5772;50.940;6.782;2023-03-01T07:17:45;27.67;;;25.67;;
11431;SDS011;5772;50.940;6.782;2023-03-01T07:20:12;25.87;;;24.03;;
11431;SDS011;5772;50.940;6.782;2023-03-01T07:22:39;27.43;;;25.80;;
11431;SDS011;5772;50.940;6.782;2023-03-01T07:25:05;25.00;;;23.50;;
11431;SDS011;5772;50.940;6.782;2023-03-01T07:27:31;25.60;;;23.80;;
11431;SDS011;5772;50.940;6.782;2023-03-01T07:29:56;25.27;;;23.17;;
11431;SDS011;5772;50.940;6.782;2023-03-01T07:32:21;23.87;;;22.47;;
11431;SDS011;5772;50.940;6.782;2023-03-01T07:34:47;28.00;;;26.10;;
11431;SDS011;5772;50.940;6.782;2023-03-01T07:37:13;26.07;;;24.47;;
11431;SDS011;5772;50.940;6.782;2023-03-01T07:39:39;23.17;;;21.57;;
11431;SDS011;5772;50.940;6.782;2023-03-01T07:42:04;24.80;;;23.27;;
11431;SDS011;5772;50.940;6.782;2023-03-01T07:44:29;23.30;;;22.07;;
11431;SDS011;5772;50.940;6.782;2023-03-01T07:46:55;29.97;;;28.27;;
11431;SDS011;5772;50.940;6.782;2023-03-01T07:49:20;26.23;;;24.63;;
11431;SDS011;5772;50.940;6.782;2023-03-01T07:51:46;25.17;;;23.30;;
11431;SDS011;5772;50.940;6.782;2023-03-01T07:54:12;22.33;;;20.83;;
11431;SDS011;5772;50.940;6.782;2023-03-01T07:56:38;23.70;;;21.93;;
11431;SDS011;5772;50.940;6.782;2023-03-01T07:59:03;23.43;;;21.83;;
11431;SDS011;5772;50.940;6.782;2023-03-01T08:01:28;22.30;;;20.70;;
11431;SDS011;5772;50.940;6.782;2023-03-01T08:03:54;22.77;;;21.50;;
11431;SDS011;5772;50.940;6.782;2023-03-01T08:06:19;23.13;;;21.67;;
11431;SDS011;5772;50.940;6.782;2023-03-01T08:08:44;22.03;;;20.43;;
11431;SDS011;5772;50.940;6.782;2023-03-01T08:11:12;21.27;;;19.87;;
11431;SDS011;5772;50.940;6.782;2023-03-01T08:13:38;22.20;;;20.53;;
11431;SDS011;5772;50.940;6.782;2023-03-01T08:16:04;22.00;;;20.50;;
11431;SDS011;5772;50.940;6.782;2023-03-01T08:18:31;23.40;;;21.90;;
11431;SDS011;5772;50.940;6.782;2023-03-01T08:21:00;22.20;;;20.93;;
11431;SDS011;5772;50.940;6.782;2023-03-01T08:23:26;22.53;;;20.97;;
11431;SDS011;5772;50.940;6.782;2023-03-01T08:25:52;21.43;;;19.93;;
11431;SDS011;5772;50.940;6.782;2023-03-01T08:28:18;20.87;;;19.57;;
11431;SDS011;5772;50.940;6.782;2023-03-01T08:30:44;21.30;;;19.83;;
11431;SDS011;5772;50.940;6.782;2023-03-01T08:33:09;21.23;;;19.77;;
11431;SDS011;5772;50.940;6.782;2023-03-01T08:35:34;21.33;;;19.83;;
11431;SDS011;5772;50.940;6.782;2023-03-01T08:38:00;19.73;;;18.43;;
11431;SDS011;5772;50.940;6.782;2023-03-01T08:40:25;19.53;;;17.93;;
11431;SDS011;5772;50.940;6.782;2023-03-01T08:42:51;20.97;;;19.57;;
11431;SDS011;5772;50.940;6.782;2023-03-01T08:45:17;21.37;;;20.07;;
11431;SDS011;5772;50.940;6.782;2023-03-01T08:47:43;21.93;;;20.43;;
11431;SDS011;5772;50.940;6.782;2023-03-01T08:50:08;21.00;;;19.67;;
11431;SDS011;5772;50.940;6.782;2023-03-01T08:52:34;20.60;;;19.40;;
11431;SDS011;5772;50.940;6.782;2023-03-01T08:55:00;20.52;;;19.13;;
11431;SDS011;5772;50.940;6.782;2023-03-01T08:57:25;21.90;;;20.00;;
11431;SDS011;5772;50.940;6.782;2023-03-01T08:59:50;21.88;;;20.27;;
11431;SDS011;5772;50.940;6.782;2023-03-01T09:02:17;22.55;;;20.92;;
11431;SDS011;5772;50.940;6.782;2023-03-01T09:04:43;21.98;;;20.58;;
11431;SDS011;5772;50.940;6.782;2023-03-01T09:07:08;21.17;;;19.67;;
11431;SDS011;5772;50.940;6.782;2023-03-01T09:09:34;20.08;;;18.77;;
11431;SDS011;5772;50.940;6.782;2023-03-01T09:11:59;21.05;;;19.52;;
11431;SDS011;5772;50.940;6.782;2023-03-01T09:14:25;18.83;;;17.42;;
11431;SDS011;5772;50.940;6.782;2023-03-01T09:16:50;21.52;;;20.08;;
11431;SDS011;5772;50.940;6.782;2023-03-01T09:19:17;20.75;;;19.40;;
11431;SDS011;5772;50.940;6.782;2023-03-01T09:21:42;20.55;;;19.35;;
11431;SDS011;5772;50.940;6.782;2023-03-01T09:24:11;21.55;;;20.08;;
11431;SDS011;5772;50.940;6.782;2023-03-01T09:26:38;19.42;;;18.17;;
11431;SDS011;5772;50.940;6.782;2023-03-01T09:29:03;20.63;;;19.27;;
11431;SDS011;5772;50.940;6.782;2023-03-01T09:31:28;22.33;;;20.63;;
11431;SDS011;5772;50.940;6.782;2023-03-01T09:33:54;20.17;;;18.70;;
11431;SDS011;5772;50.940;6.782;2023-03-01T09:36:22;21.85;;;20.20;;
11431;SDS011;5772;50.940;6.782;2023-03-01T09:38:48;20.30;;;18.63;;
11431;SDS011;5772;50.940;6.782;2023-03-01T09:41:19;20.25;;;19.00;;
11431;SDS011;5772;50.940;6.782;2023-03-01T09:43:52;22.52;;;20.75;;
11431;SDS011;5772;50.940;6.782;2023-03-01T09:46:19;21.50;;;19.90;;
11431;SDS011;5772;50.940;6.782;2023-03-01T09:48:46;24.08;;;21.77;;
11431;SDS011;5772;50.940;6.782;2023-03-01T09:51:15;22.23;;;20.52;;
11431;SDS011;5772;50.940;6.782;2023-03-01T09:53:45;21.65;;;19.98;;
11431;SDS011;5772;50.940;6.782;2023-03-01T09:56:12;18.92;;;17.48;;
11431;SDS011;5772;50.940;6.782;2023-03-01T09:58:46;19.48;;;18.05;;
11431;SDS011;5772;50.940;6.782;2023-03-01T10:04:12;19.13;;;17.67;;
11431;SDS011;5772;50.940;6.782;2023-03-01T10:06:51;19.35;;;18.00;;
11431;SDS011;5772;50.940;6.782;2023-03-01T10:09:22;19.75;;;18.52;;
11431;SDS011;5772;50.940;6.782;2023-03-01T10:11:48;18.67;;;17.45;;
11431;SDS011;5772;50.940;6.782;2023-03-01T10:14:19;20.58;;;19.13;;
11431;SDS011;5772;50.940;6.782;2023-03-01T10:16:59;19.70;;;18.40;;
11431;SDS011;5772;50.940;6.782;2023-03-01T10:19:28;20.80;;;18.83;;
11431;SDS011;5772;50.940;6.782;2023-03-01T10:21:56;20.52;;;18.88;;
11431;SDS011;5772;50.940;6.782;2023-03-01T10:24:26;21.05;;;19.15;;
11431;SDS011;5772;50.940;6.782;2023-03-01T10:26:53;21.02;;;19.52;;
11431;SDS011;5772;50.940;6.782;2023-03-01T10:29:19;20.33;;;19.17;;
11431;SDS011;5772;50.940;6.782;2023-03-01T10:31:49;22.08;;;20.67;;
11431;SDS011;5772;50.940;6.782;2023-03-01T10:34:17;20.13;;;18.85;;
11431;SDS011;5772;50.940;6.782;2023-03-01T10:36:44;20.58;;;19.30;;
11431;SDS011;5772;50.940;6.782;2023-03-01T10:39:14;19.13;;;17.73;;
11431;SDS011;5772;50.940;6.782;2023-03-01T10:44:39;19.67;;;18.52;;
11431;SDS011;5772;50.940;6.782;2023-03-01T10:47:11;19.73;;;18.55;;
11431;SDS011;5772;50.940;6.782;2023-03-01T10:49:39;20.23;;;18.83;;
11431;SDS011;5772;50.940;6.782;2023-03-01T10:52:11;20.02;;;18.77;;
11431;SDS011;5772;50.940;6.782;2023-03-01T10:54:42;19.48;;;18.17;;
11431;SDS011;5772;50.940;6.782;2023-03-01T10:57:24;19.25;;;17.83;;
11431;SDS011;5772;50.940;6.782;2023-03-01T11:00:00;21.17;;;19.67;;
11431;SDS011;5772;50.940;6.782;2023-03-01T11:02:39;18.98;;;17.65;;
11431;SDS011;5772;50.940;6.782;2023-03-01T11:05:15;19.77;;;18.52;;
11431;SDS011;5772;50.940;6.782;2023-03-01T11:07:46;21.35;;;19.88;;
11431;SDS011;5772;50.940;6.782;2023-03-01T11:10:15;19.58;;;18.38;;
11431;SDS011;5772;50.940;6.782;2023-03-01T11:12:44;21.15;;;19.52;;
11431;SDS011;5772;50.940;6.782;2023-03-01T11:15:15;19.83;;;18.42;;
11431;SDS011;5772;50.940;6.782;2023-03-01T11:17:45;19.27;;;18.08;;
11431;SDS011;5772;50.940;6.782;2023-03-01T11:20:14;20.15;;;18.75;;
11431;SDS011;5772;50.940;6.782;2023-03-01T11:22:46;18.88;;;17.77;;
11431;SDS011;5772;50.940;6.782;2023-03-01T11:25:15;19.00;;;17.73;;
11431;SDS011;5772;50.940;6.782;2023-03-01T11:27:44;19.85;;;18.55;;
11431;SDS011;5772;50.940;6.782;2023-03-01T11:30:13;20.33;;;18.98;;
11431;SDS011;5772;50.940;6.782;2023-03-01T11:32:42;19.63;;;18.42;;
11431;SDS011;5772;50.940;6.782;2023-03-01T11:35:12;20.13;;;18.70;;
11431;SDS011;5772;50.940;6.782;2023-03-01T11:37:41;20.60;;;19.10;;
11431;SDS011;5772;50.940;6.782;2023-03-01T11:40:13;20.63;;;19.08;;
11431;SDS011;5772;50.940;6.782;2023-03-01T11:42:46;21.10;;;19.60;;
11431;SDS011;5772;50.940;6.782;2023-03-01T11:45:15;20.58;;;19.25;;
11431;SDS011;5772;50.940;6.782;2023-03-01T11:47:47;19.35;;;18.15;;
11431;SDS011;5772;50.940;6.782;2023-03-01T11:50:47;19.65;;;18.20;;
11431;SDS011;5772;50.940;6.782;2023-03-01T11:53:18;18.95;;;17.63;;
11431;SDS011;5772;50.940;6.782;2023-03-01T11:55:55;19.05;;;17.85;;
11431;SDS011;5772;50.940;6.782;2023-03-01T11:58:31;19.38;;;18.15;;
11431;SDS011;5772;50.940;6.782;2023-03-01T12:01:06;19.35;;;17.95;;
11431;SDS011;5772;50.940;6.782;2023-03-01T12:03:38;18.63;;;17.33;;
11431;SDS011;5772;50.940;6.782;2023-03-01T12:06:24;18.20;;;17.10;;
11431;SDS011;5772;50.940;6.782;2023-03-01T12:09:01;18.70;;;17.65;;
11431;SDS011;5772;50.940;6.782;2023-03-01T12:11:35;18.92;;;17.73;;
11431;SDS011;5772;50.940;6.782;2023-03-01T12:14:16;19.75;;;18.33;;
11431;SDS011;5772;50.940;6.782;2023-03-01T12:16:55;19.40;;;18.27;;
11431;SDS011;5772;50.940;6.782;2023-03-01T12:19:31;19.60;;;18.48;;
11431;SDS011;5772;50.940;6.782;2023-03-01T12:22:17;19.60;;;18.40;;
11431;SDS011;5772;50.940;6.782;2023-03-01T12:24:55;18.88;;;17.67;;
11431;SDS011;5772;50.940;6.782;2023-03-01T12:27:50;20.75;;;19.25;;
11431;SDS011;5772;50.940;6.782;2023-03-01T12:30:34;19.52;;;18.13;;
11431;SDS011;5772;50.940;6.782;2023-03-01T12:33:11;19.30;;;17.95;;
11431;SDS011;5772;50.940;6.782;2023-03-01T12:35:49;19.90;;;18.60;;
11431;SDS011;5772;50.940;6.782;2023-03-01T12:38:22;19.63;;;18.35;;
11431;SDS011;5772;50.940;6.782;2023-03-01T12:44:14;18.27;;;17.20;;
11431;SDS011;5772;50.940;6.782;2023-03-01T12:46:51;18.73;;;17.52;;
11431;SDS011;5772;50.940;6.782;2023-03-01T12:49:23;18.75;;;17.63;;
11431;SDS011;5772;50.940;6.782;2023-03-01T12:51:54;21.03;;;19.67;;
11431;SDS011;5772;50.940;6.782;2023-03-01T12:54:25;20.40;;;19.20;;
11431;SDS011;5772;50.940;6.782;2023-03-01T12:56:52;20.52;;;19.35;;
11431;SDS011;5772;50.940;6.782;2023-03-01T12:59:18;20.23;;;19.15;;
11431;SDS011;5772;50.940;6.782;2023-03-01T13:01:49;22.23;;;20.90;;
11431;SDS011;5772;50.940;6.782;2023-03-01T13:07:21;22.02;;;20.35;;
11431;SDS011;5772;50.940;6.782;2023-03-01T13:09:51;20.80;;;19.60;;
11431;SDS011;5772;50.940;6.782;2023-03-01T13:17:51;20.42;;;18.75;;
11431;SDS011;5772;50.940;6.782;2023-03-01T13:20:19;20.60;;;19.13;;
11431;SDS011;5772;50.940;6.782;2023-03-01T13:22:46;19.63;;;18.42;;
11431;SDS011;5772;50.940;6.782;2023-03-01T13:25:13;20.00;;;18.67;;
11431;SDS011;5772;50.940;6.782;2023-03-01T13:27:40;22.83;;;21.15;;
11431;SDS011;5772;50.940;6.782;2023-03-01T13:30:37;22.17;;;20.60;;
11431;SDS011;5772;50.940;6.782;2023-03-01T13:36:08;22.03;;;20.70;;
11431;SDS011;5772;50.940;6.782;2023-03-01T13:38:46;21.40;;;20.20;;
11431;SDS011;5772;50.940;6.782;2023-03-01T13:41:13;21.00;;;19.80;;
11431;SDS011;5772;50.940;6.782;2023-03-01T13:43:40;20.83;;;19.43;;
11431;SDS011;5772;50.940;6.782;2023-03-01T13:46:10;22.30;;;20.80;;
11431;SDS011;5772;50.940;6.782;2023-03-01T13:48:37;21.90;;;20.50;;
11431;SDS011;5772;50.940;6.782;2023-03-01T13:51:06;21.47;;;20.17;;
11431;SDS011;5772;50.940;6.782;2023-03-01T13:53:33;21.53;;;20.10;;
11431;SDS011;5772;50.940;6.782;2023-03-01T13:56:02;19.57;;;18.40;;
11431;SDS011;5772;50.940;6.782;2023-03-01T13:58:32;21.33;;;19.87;;
11431;SDS011;5772;50.940;6.782;2023-03-01T14:00:59;20.60;;;19.20;;
11431;SDS011;5772;50.940;6.782;2023-03-01T14:03:26;20.00;;;18.80;;
11431;SDS011;5772;50.940;6.782;2023-03-01T14:05:59;20.63;;;19.17;;
11431;SDS011;5772;50.940;6.782;2023-03-01T14:08:28;22.63;;;20.73;;
11431;SDS011;5772;50.940;6.782;2023-03-01T14:14:04;21.67;;;20.10;;
11431;SDS011;5772;50.940;6.782;2023-03-01T14:16:51;21.60;;;20.17;;
11431;SDS011;5772;50.940;6.782;2023-03-01T14:19:21;20.50;;;19.10;;
11431;SDS011;5772;50.940;6.782;2023-03-01T14:21:48;20.63;;;19.13;;
11431;SDS011;5772;50.940;6.782;2023-03-01T14:24:25;21.73;;;20.23;;
11431;SDS011;5772;50.940;6.782;2023-03-01T14:26:50;20.17;;;18.93;;
11431;SDS011;5772;50.940;6.782;2023-03-01T14:29:25;22.53;;;21.17;;
11431;SDS011;5772;50.940;6.782;2023-03-01T14:31:52;23.07;;;21.70;;
11431;SDS011;5772;50.940;6.782;2023-03-01T14:34:18;22.43;;;20.67;;
11431;SDS011;5772;50.940;6.782;2023-03-01T14:36:49;20.53;;;19.23;;
11431;SDS011;5772;50.940;6.782;2023-03-01T14:39:18;21.50;;;20.07;;
11431;SDS011;5772;50.940;6.782;2023-03-01T14:41:46;20.97;;;19.67;;
11431;SDS011;5772;50.940;6.782;2023-03-01T14:44:14;20.10;;;18.90;;
11431;SDS011;5772;50.940;6.782;2023-03-01T14:46:41;21.00;;;19.67;;
11431;SDS011;5772;50.940;6.782;2023-03-01T14:49:09;20.87;;;19.27;;
11431;SDS011;5772;50.940;6.782;2023-03-01T14:51:36;20.63;;;19.23;;
11431;SDS011;5772;50.940;6.782;2023-03-01T14:54:02;21.83;;;20.33;;
11431;SDS011;5772;50.940;6.782;2023-03-01T14:56:28;22.27;;;20.77;;
11431;SDS011;5772;50.940;6.782;2023-03-01T14:59:09;23.40;;;21.83;;
11431;SDS011;5772;50.940;6.782;2023-03-01T15:01:36;25.53;;;23.63;;
11431;SDS011;5772;50.940;6.782;2023-03-01T15:04:01;24.87;;;23.17;;
11431;SDS011;5772;50.940;6.782;2023-03-01T15:06:27;23.30;;;21.80;;
11431;SDS011;5772;50.940;6.782;2023-03-01T15:08:53;23.67;;;22.37;;
11431;SDS011;5772;50.940;6.782;2023-03-01T15:11:20;22.03;;;20.93;;
11431;SDS011;5772;50.940;6.782;2023-03-01T15:13:46;23.77;;;22.47;;
11431;SDS011;5772;50.940;6.782;2023-03-01T15:16:13;24.00;;;22.43;;
11431;SDS011;5772;50.940;6.782;2023-03-01T15:18:43;24.47;;;22.97;;
11431;SDS011;5772;50.940;6.782;2023-03-01T15:21:14;23.53;;;22.03;;
11431;SDS011;5772;50.940;6.782;2023-03-01T15:23:41;23.03;;;21.57;;
11431;SDS011;5772;50.940;6.782;2023-03-01T15:26:16;23.97;;;22.53;;
11431;SDS011;5772;50.940;6.782;2023-03-01T15:28:49;22.03;;;20.67;;
11431;SDS011;5772;50.940;6.782;2023-03-01T15:31:18;23.43;;;21.83;;
11431;SDS011;5772;50.940;6.782;2023-03-01T15:33:45;23.90;;;22.43;;
11431;SDS011;5772;50.940;6.782;2023-03-01T15:36:30;22.83;;;21.43;;
11431;SDS011;5772;50.940;6.782;2023-03-01T15:39:02;23.00;;;21.43;;
11431;SDS011;5772;50.940;6.782;2023-03-01T15:41:29;22.70;;;21.07;;
11431;SDS011;5772;50.940;6.782;2023-03-01T15:43:55;22.37;;;20.87;;
11431;SDS011;5772;50.940;6.782;2023-03-01T15:46:27;23.17;;;21.80;;
11431;SDS011;5772;50.940;6.782;2023-03-01T15:48:54;24.67;;;23.17;;
11431;SDS011;5772;50.940;6.782;2023-03-01T15:51:22;27.43;;;25.47;;
11431;SDS011;5772;50.940;6.782;2023-03-01T15:53:52;29.23;;;27.53;;
11431;SDS011;5772;50.940;6.782;2023-03-01T15:56:17;32.73;;;30.07;;
11431;SDS011;5772;50.940;6.782;2023-03-01T15:58:43;28.93;;;27.43;;
11431;SDS011;5772;50.940;6.782;2023-03-01T16:01:09;29.57;;;27.97;;
11431;SDS011;5772;50.940;6.782;2023-03-01T16:03:37;29.90;;;27.83;;
11431;SDS011;5772;50.940;6.782;2023-03-01T16:06:03;33.50;;;31.40;;
11431;SDS011;5772;50.940;6.782;2023-03-01T16:08:28;29.57;;;27.83;;
11431;SDS011;5772;50.940;6.782;2023-03-01T16:10:54;29.93;;;28.13;;
11431;SDS011;5772;50.940;6.782;2023-03-01T16:13:19;27.57;;;25.87;;
11431;SDS011;5772;50.940;6.782;2023-03-01T16:15:44;26.87;;;25.20;;
11431;SDS011;5772;50.940;6.782;2023-03-01T16:18:10;28.50;;;26.70;;
11431;SDS011;5772;50.940;6.782;2023-03-01T16:20:37;28.00;;;26.30;;